createdAt,value
2022-10-02T00:02:41.309Z,14.40
2022-10-02T00:05:33.712Z,14.50
2022-10-02T00:08:25.708Z,14.50
2022-10-02T00:11:19.285Z,14.50
2022-10-02T00:14:10.469Z,14.50
2022-10-02T00:17:00.776Z,14.60
2022-10-02T00:19:47.167Z,14.60
2022-10-02T00:22:42.550Z,14.60
2022-10-02T00:25:37.883Z,14.60
2022-10-02T00:28:29.552Z,14.50
2022-10-02T00:31:27.030Z,14.50
2022-10-02T00:34:21.885Z,14.50
2022-10-02T00:37:15.714Z,14.50
2022-10-02T00:40:14.565Z,14.40
2022-10-02T00:43:11.123Z,14.40
2022-10-02T00:46:31.270Z,14.40
2022-10-02T00:49:44.506Z,14.30
2022-10-02T00:52:50.752Z,14.30
2022-10-02T00:55:57.169Z,14.30
2022-10-02T00:59:24.602Z,14.30
2022-10-02T01:02:15.827Z,14.20
2022-10-02T01:05:05.034Z,14.30
2022-10-02T01:07:54.049Z,14.30
2022-10-02T01:10:43.837Z,14.30
2022-10-02T01:13:31.386Z,14.30
2022-10-02T01:16:18.795Z,14.30
2022-10-02T01:19:10.689Z,14.30
2022-10-02T01:22:04.880Z,14.30
2022-10-02T01:24:53.132Z,14.30
2022-10-02T01:27:40.080Z,14.30
2022-10-02T01:30:26.886Z,14.30
2022-10-02T01:33:14.946Z,14.30
2022-10-02T01:36:02.424Z,14.30
2022-10-02T01:38:50.021Z,14.30
2022-10-02T01:41:42.562Z,14.30
2022-10-02T01:44:30.074Z,14.40
2022-10-02T01:47:20.592Z,14.30
2022-10-02T01:50:17.896Z,14.30
2022-10-02T01:53:12.444Z,14.30
2022-10-02T01:56:05.921Z,14.30
2022-10-02T01:59:05.050Z,14.30
2022-10-02T02:01:59.804Z,14.30
2022-10-02T02:04:55.118Z,14.30
2022-10-02T02:07:50.232Z,14.30
2022-10-02T02:10:46.579Z,14.40
2022-10-02T02:13:40.525Z,14.30
2022-10-02T02:16:31.765Z,14.40
2022-10-02T02:19:24.334Z,14.40
2022-10-02T02:22:16.948Z,14.40
2022-10-02T02:25:07.862Z,14.50
2022-10-02T02:27:59.747Z,14.40
2022-10-02T02:30:50.806Z,14.40
2022-10-02T02:33:43.885Z,14.50
2022-10-02T02:36:36.963Z,14.50
2022-10-02T02:39:29.968Z,14.50
2022-10-02T02:42:22.746Z,14.50
2022-10-02T02:45:15.488Z,14.50
2022-10-02T02:48:06.321Z,14.50
2022-10-02T02:50:59.339Z,14.50
2022-10-02T02:53:49.767Z,14.60
2022-10-02T02:56:37.327Z,14.60
2022-10-02T02:59:27.516Z,14.50
2022-10-02T03:02:14.296Z,14.50
2022-10-02T03:05:01.106Z,14.60
2022-10-02T03:07:53.730Z,14.60
2022-10-02T03:10:47.022Z,14.50
2022-10-02T03:13:55.619Z,14.50
2022-10-02T03:16:51.721Z,14.50
2022-10-02T03:19:45.117Z,14.50
2022-10-02T03:22:43.349Z,14.50
2022-10-02T03:25:36.541Z,14.50
2022-10-02T03:28:53.692Z,14.50
2022-10-02T03:31:38.044Z,14.50
2022-10-02T03:34:25.345Z,14.60
2022-10-02T03:37:12.795Z,14.60
2022-10-02T03:39:59.886Z,14.60
2022-10-02T03:42:47.705Z,14.60
2022-10-02T03:45:50.554Z,14.60
2022-10-02T03:48:38.097Z,14.50
2022-10-02T03:51:24.768Z,14.70
2022-10-02T03:54:15.970Z,14.60
2022-10-02T03:57:07.528Z,14.60
2022-10-02T04:00:03.079Z,14.60
2022-10-02T04:02:58.297Z,14.50
2022-10-02T04:05:48.976Z,14.60
2022-10-02T04:08:39.281Z,14.60
2022-10-02T04:11:31.080Z,14.50
2022-10-02T04:14:22.096Z,14.50
2022-10-02T04:17:15.222Z,14.50
2022-10-02T04:20:07.645Z,14.40
2022-10-02T04:22:58.893Z,14.30
2022-10-02T04:25:49.087Z,14.30
2022-10-02T04:28:40.234Z,14.20
2022-10-02T04:31:28.416Z,14.20
2022-10-02T04:34:16.304Z,14.20
2022-10-02T04:37:19.264Z,14.20
2022-10-02T04:40:20.984Z,14.20
2022-10-02T04:43:19.821Z,14.20
2022-10-02T04:46:20.366Z,14.10
2022-10-02T04:49:24.380Z,14.10
2022-10-02T04:52:20.343Z,14.10
2022-10-02T04:55:25.577Z,14.10
2022-10-02T04:58:33.763Z,14.20
2022-10-02T05:01:30.197Z,14.20
2022-10-02T05:04:34.519Z,14.20
2022-10-02T05:07:39.080Z,14.30
2022-10-02T05:10:46.222Z,14.20
2022-10-02T05:13:53.661Z,14.20
2022-10-02T05:16:58.801Z,14.20
2022-10-02T05:19:58.784Z,14.10
2022-10-02T05:23:11.207Z,14.10
2022-10-02T05:26:18.562Z,14.00
2022-10-02T05:29:29.265Z,14.00
2022-10-02T05:32:35.028Z,14.00
2022-10-02T05:35:35.851Z,14.00
2022-10-02T05:38:32.661Z,14.00
2022-10-02T05:41:26.829Z,14.00
2022-10-02T05:44:17.969Z,13.90
2022-10-02T05:47:13.349Z,13.90
2022-10-02T05:50:04.104Z,13.90
2022-10-02T05:52:58.391Z,13.90
2022-10-02T05:55:50.111Z,13.90
2022-10-02T05:58:41.918Z,13.90
2022-10-02T06:01:31.454Z,13.90
2022-10-02T06:04:24.625Z,13.90
2022-10-02T06:07:17.815Z,13.90
2022-10-02T06:10:12.125Z,13.90
2022-10-02T06:12:59.747Z,13.90
2022-10-02T06:15:52.131Z,14.00
2022-10-02T06:18:41.640Z,14.00
2022-10-02T06:21:34.172Z,14.10
2022-10-02T06:24:26.264Z,14.10
2022-10-02T06:27:21.933Z,14.10
2022-10-02T06:30:12.138Z,14.10
2022-10-02T06:33:05.321Z,14.00
2022-10-02T06:36:24.019Z,14.00
2022-10-02T06:39:32.928Z,14.10
2022-10-02T06:42:33.455Z,14.10
2022-10-02T06:45:28.425Z,14.10
2022-10-02T06:48:25.429Z,14.10
2022-10-02T06:51:21.527Z,14.20
2022-10-02T06:54:20.773Z,14.30
2022-10-02T06:57:19.709Z,14.30
2022-10-02T07:00:14.571Z,14.30
2022-10-02T07:03:42.306Z,14.30
2022-10-02T07:06:42.468Z,14.10
2022-10-02T07:09:50.473Z,14.20
2022-10-02T07:13:02.860Z,14.10
2022-10-02T07:16:06.735Z,14.10
2022-10-02T07:19:28.580Z,14.10
2022-10-02T07:22:45.605Z,14.10
2022-10-02T07:25:46.739Z,14.10
2022-10-02T07:28:42.205Z,14.10
2022-10-02T07:31:46.585Z,14.00
2022-10-02T07:34:45.406Z,14.00
2022-10-02T07:37:43.225Z,14.10
2022-10-02T07:40:39.646Z,14.10
2022-10-02T07:43:40.277Z,14.20
2022-10-02T07:46:40.002Z,14.30
2022-10-02T07:49:38.078Z,14.40
2022-10-02T07:52:32.568Z,14.30
2022-10-02T07:55:21.504Z,14.30
2022-10-02T07:58:13.491Z,14.30
2022-10-02T08:01:03.041Z,14.20
2022-10-02T08:03:56.657Z,14.20
2022-10-02T08:06:44.969Z,14.30
2022-10-02T08:09:36.137Z,14.30
2022-10-02T08:12:31.557Z,14.30
2022-10-02T08:15:23.352Z,14.30
2022-10-02T08:18:35.316Z,14.30
2022-10-02T08:21:26.452Z,14.40
2022-10-02T08:24:16.817Z,14.50
2022-10-02T08:27:09.332Z,14.60
2022-10-02T08:30:02.292Z,14.70
2022-10-02T08:32:48.832Z,14.70
2022-10-02T08:35:47.263Z,14.80
2022-10-02T08:38:41.429Z,14.90
2022-10-02T08:41:46.533Z,14.90
2022-10-02T08:45:10.031Z,14.80
2022-10-02T08:48:32.764Z,14.80
2022-10-02T08:52:00.999Z,14.70
2022-10-02T08:55:16.943Z,14.70
2022-10-02T08:58:33.352Z,14.50
2022-10-02T09:01:45.765Z,14.50
2022-10-02T09:05:00.979Z,14.60
2022-10-02T09:08:23.240Z,14.50
2022-10-02T09:11:50.660Z,14.50
2022-10-02T09:14:59.055Z,14.50
2022-10-02T09:17:49.241Z,14.50
2022-10-02T09:21:09.343Z,14.60
2022-10-02T09:24:36.761Z,14.60
2022-10-02T09:27:53.630Z,14.60
2022-10-02T09:31:20.368Z,14.70
2022-10-02T09:34:51.011Z,14.80
2022-10-02T09:38:05.359Z,14.70
2022-10-02T09:41:37.590Z,14.70
2022-10-02T09:45:01.560Z,14.80
2022-10-02T09:48:37.952Z,14.80
2022-10-02T09:51:55.045Z,14.80
2022-10-02T09:55:11.596Z,14.80
2022-10-02T09:58:33.174Z,14.70
2022-10-02T10:01:47.965Z,14.60
2022-10-02T10:05:16.892Z,14.50
2022-10-02T10:08:32.684Z,14.50
2022-10-02T10:11:39.781Z,14.60
2022-10-02T10:15:00.596Z,14.60
2022-10-02T10:18:34.120Z,14.70
2022-10-02T10:21:51.919Z,14.60
2022-10-02T10:25:10.620Z,14.70
2022-10-02T10:28:23.832Z,14.60
2022-10-02T10:31:46.812Z,14.60
2022-10-02T10:35:26.722Z,14.60
2022-10-02T10:38:38.138Z,14.60
2022-10-02T10:42:01.137Z,14.60
2022-10-02T10:45:30.681Z,14.60
2022-10-02T10:48:50.566Z,14.80
2022-10-02T10:51:45.865Z,14.90
2022-10-02T10:54:56.751Z,14.90
2022-10-02T10:57:55.611Z,14.90
2022-10-02T11:00:56.668Z,14.90
2022-10-02T11:04:17.520Z,14.90
2022-10-02T11:07:20.493Z,14.80
2022-10-02T11:10:38.016Z,14.90
2022-10-02T11:13:41.578Z,14.90
2022-10-02T11:17:12.990Z,15.00
2022-10-02T11:20:14.593Z,15.10
2022-10-02T11:23:29.301Z,15.10
2022-10-02T11:26:29.733Z,15.20
2022-10-02T11:29:49.335Z,15.40
2022-10-02T11:33:10.743Z,15.40
2022-10-02T11:36:42.486Z,15.50
2022-10-02T11:39:50.914Z,15.50
2022-10-02T11:43:01.829Z,15.50
2022-10-02T11:46:21.830Z,15.50
2022-10-02T11:49:32.618Z,15.70
2022-10-02T11:52:56.429Z,15.90
2022-10-02T11:56:11.660Z,16.00
2022-10-02T11:59:18.497Z,16.00
2022-10-02T12:02:16.364Z,15.90
2022-10-02T12:05:18.077Z,15.80
2022-10-02T12:08:14.959Z,15.80
2022-10-02T12:11:12.800Z,15.80
2022-10-02T12:14:10.125Z,15.70
2022-10-02T12:17:09.673Z,15.60
2022-10-02T12:20:25.105Z,15.50
2022-10-02T12:23:42.565Z,15.50
2022-10-02T12:27:00.358Z,15.60
2022-10-02T12:30:06.148Z,15.60
2022-10-02T12:33:08.136Z,15.50
2022-10-02T12:36:10.486Z,15.50
2022-10-02T12:39:21.884Z,15.50
2022-10-02T12:42:30.885Z,15.50
2022-10-02T12:45:47.846Z,15.40
2022-10-02T12:48:46.778Z,15.40
2022-10-02T12:51:40.382Z,15.30
2022-10-02T12:55:11.516Z,15.40
2022-10-02T12:58:10.994Z,15.50
2022-10-02T13:01:30.745Z,15.60
2022-10-02T13:04:39.873Z,15.60
2022-10-02T13:08:09.522Z,15.70
2022-10-02T13:11:08.301Z,15.80
2022-10-02T13:14:20.721Z,15.80
2022-10-02T13:17:23.727Z,15.90
2022-10-02T13:20:22.455Z,16.00
2022-10-02T13:23:24.180Z,16.00
2022-10-02T13:26:21.173Z,16.10
2022-10-02T13:29:43.565Z,16.00
2022-10-02T13:32:47.811Z,16.00
2022-10-02T13:35:54.929Z,15.80
2022-10-02T13:39:08.585Z,15.80
2022-10-02T13:42:08.907Z,15.70
2022-10-02T13:45:07.606Z,15.60
2022-10-02T13:48:03.973Z,15.50
2022-10-02T13:50:59.431Z,15.50
2022-10-02T13:54:15.661Z,15.50
2022-10-02T13:57:09.795Z,15.50
2022-10-02T14:00:10.864Z,15.50
2022-10-02T14:03:09.772Z,15.50
2022-10-02T14:06:03.897Z,15.40
2022-10-02T14:09:23.420Z,15.50
2022-10-02T14:12:27.583Z,15.40
2022-10-02T14:15:22.065Z,15.50
2022-10-02T14:18:29.817Z,15.40
2022-10-02T14:21:27.150Z,15.20
2022-10-02T14:25:01.135Z,15.30
2022-10-02T14:28:03.389Z,15.30
2022-10-02T14:31:19.272Z,15.40
2022-10-02T14:34:36.808Z,15.50
2022-10-02T14:38:02.123Z,15.40
2022-10-02T14:40:53.744Z,15.40
2022-10-02T14:44:07.278Z,15.20
2022-10-02T14:47:12.097Z,15.20
2022-10-02T14:50:41.559Z,15.10
2022-10-02T14:54:02.042Z,15.20
2022-10-02T14:56:55.174Z,15.20
2022-10-02T14:59:58.357Z,15.20
2022-10-02T15:03:11.158Z,14.90
2022-10-02T15:06:05.114Z,14.90
2022-10-02T15:08:56.999Z,14.90
2022-10-02T15:12:01.272Z,15.00
2022-10-02T15:15:08.528Z,15.00
2022-10-02T15:18:20.015Z,14.70
2022-10-02T15:21:19.647Z,14.70
2022-10-02T15:24:29.743Z,14.80
2022-10-02T15:27:24.563Z,14.70
2022-10-02T15:30:19.331Z,14.80
2022-10-02T15:33:15.945Z,14.80
2022-10-02T15:36:20.553Z,14.90
2022-10-02T15:39:36.927Z,14.90
2022-10-02T15:42:50.160Z,14.90
2022-10-02T15:45:59.452Z,15.00
2022-10-02T15:48:59.596Z,14.90
2022-10-02T15:52:01.229Z,14.90
2022-10-02T15:54:56.531Z,14.90
2022-10-02T15:58:01.742Z,14.90
2022-10-02T16:01:11.636Z,14.90
2022-10-02T16:04:08.593Z,15.00
2022-10-02T16:07:27.758Z,14.90
2022-10-02T16:10:24.358Z,14.90
2022-10-02T16:13:28.773Z,15.00
2022-10-02T16:16:32.547Z,15.00
2022-10-02T16:19:32.894Z,14.90
2022-10-02T16:22:36.697Z,14.90
2022-10-02T16:25:51.357Z,14.90
2022-10-02T16:29:01.606Z,14.90
2022-10-02T16:32:04.547Z,14.90
2022-10-02T16:35:17.605Z,14.90
2022-10-02T16:38:11.937Z,15.00
2022-10-02T16:40:58.894Z,14.80
2022-10-02T16:44:00.022Z,14.80
2022-10-02T16:46:51.909Z,14.80
2022-10-02T16:49:51.009Z,14.80
2022-10-02T16:52:44.603Z,14.80
2022-10-02T16:55:35.553Z,14.70
2022-10-02T16:58:27.793Z,14.70
2022-10-02T17:01:25.443Z,14.70
2022-10-02T17:04:39.875Z,14.70
2022-10-02T17:07:33.402Z,14.70
2022-10-02T17:10:31.870Z,14.50
2022-10-02T17:13:28.742Z,14.50
2022-10-02T17:16:21.690Z,14.50
2022-10-02T17:19:22.238Z,14.50
2022-10-02T17:22:15.017Z,14.50
2022-10-02T17:25:16.457Z,14.60
2022-10-02T17:28:10.549Z,14.60
2022-10-02T17:31:25.376Z,14.50
2022-10-02T17:34:21.432Z,14.50
2022-10-02T17:37:53.601Z,14.50
2022-10-02T17:40:49.872Z,14.50
2022-10-02T17:43:43.146Z,14.50
2022-10-02T17:46:49.640Z,14.50
2022-10-02T17:49:48.060Z,14.60
2022-10-02T17:52:59.025Z,14.60
2022-10-02T17:56:30.801Z,14.60
2022-10-02T17:59:56.580Z,14.50
2022-10-02T18:03:12.880Z,14.50
2022-10-02T18:06:11.284Z,14.50
2022-10-02T18:09:48.668Z,14.50
2022-10-02T18:13:01.523Z,14.40
2022-10-02T18:16:05.543Z,14.30
2022-10-02T18:19:18.243Z,14.30
2022-10-02T18:22:24.903Z,14.10
2022-10-02T18:25:29.675Z,14.00
2022-10-02T18:28:36.564Z,14.00
2022-10-02T18:31:55.324Z,14.10
2022-10-02T18:35:15.124Z,14.10
2022-10-02T18:38:22.717Z,14.20
2022-10-02T18:41:22.301Z,14.30
2022-10-02T18:44:30.302Z,14.40
2022-10-02T18:47:28.809Z,14.40
2022-10-02T18:50:35.568Z,14.20
2022-10-02T18:53:45.023Z,14.20
2022-10-02T18:56:51.812Z,14.20
2022-10-02T18:59:52.948Z,14.30
2022-10-02T19:02:54.444Z,14.20
2022-10-02T19:05:48.042Z,14.00
2022-10-02T19:09:04.585Z,14.00
2022-10-02T19:11:57.810Z,14.00
2022-10-02T19:14:46.866Z,14.00
2022-10-02T19:17:34.648Z,14.00
2022-10-02T19:20:37.415Z,14.00
2022-10-02T19:23:28.776Z,14.10
2022-10-02T19:26:19.194Z,14.10
2022-10-02T19:29:20.379Z,14.00
2022-10-02T19:32:14.609Z,14.00
2022-10-02T19:35:07.183Z,14.10
2022-10-02T19:37:59.255Z,14.10
2022-10-02T19:40:52.620Z,13.90
2022-10-02T19:43:49.138Z,13.90
2022-10-02T19:46:39.813Z,13.80
2022-10-02T19:49:30.216Z,13.80
2022-10-02T19:52:41.318Z,13.80
2022-10-02T19:55:33.846Z,13.70
2022-10-02T19:58:23.252Z,13.70
2022-10-02T20:01:20.368Z,13.50
2022-10-02T20:04:08.036Z,13.50
2022-10-02T20:06:57.636Z,13.50
2022-10-02T20:09:49.101Z,13.40
2022-10-02T20:12:41.812Z,13.40
2022-10-02T20:15:52.771Z,13.40
2022-10-02T20:18:39.873Z,13.30
2022-10-02T20:21:38.577Z,13.30
2022-10-02T20:24:32.096Z,13.20
2022-10-02T20:27:25.689Z,13.20
2022-10-02T20:30:17.085Z,13.10
2022-10-02T20:33:07.498Z,13.10
2022-10-02T20:35:58.096Z,13.20
2022-10-02T20:38:48.883Z,13.10
2022-10-02T20:41:48.591Z,13.10
2022-10-02T20:44:37.323Z,13.10
2022-10-02T20:48:06.076Z,13.10
2022-10-02T20:50:58.852Z,13.20
2022-10-02T20:54:12.414Z,13.10
2022-10-02T20:58:00.057Z,13.10
2022-10-02T21:01:07.901Z,13.20
2022-10-02T21:04:45.638Z,13.30
2022-10-02T21:07:55.397Z,13.20
2022-10-02T21:11:03.631Z,13.40
2022-10-02T21:14:21.798Z,13.60
2022-10-02T21:17:38.563Z,13.60
2022-10-02T21:20:56.397Z,13.70
2022-10-02T21:24:08.845Z,13.70
2022-10-02T21:27:10.077Z,13.70
2022-10-02T21:30:14.949Z,13.70
2022-10-02T21:33:06.351Z,13.80
2022-10-02T21:35:57.133Z,13.80
2022-10-02T21:39:13.826Z,13.80
2022-10-02T21:42:46.111Z,13.80
2022-10-02T21:46:14.952Z,13.70
2022-10-02T21:49:52.282Z,13.80
2022-10-02T21:53:12.519Z,13.80
2022-10-02T21:56:53.442Z,13.90
2022-10-02T22:00:08.563Z,13.90
2022-10-02T22:03:35.637Z,13.90
2022-10-02T22:06:31.737Z,13.80
2022-10-02T22:09:35.322Z,13.80
2022-10-02T22:12:43.142Z,13.90
2022-10-02T22:15:38.645Z,13.90
2022-10-02T22:18:32.397Z,13.90
2022-10-02T22:21:47.048Z,14.00
2022-10-02T22:24:48.253Z,13.90
2022-10-02T22:28:11.131Z,13.90
2022-10-02T22:31:26.648Z,13.80
2022-10-02T22:34:28.972Z,13.70
2022-10-02T22:37:28.254Z,13.70
2022-10-02T22:40:20.386Z,13.70
2022-10-02T22:43:10.645Z,13.60
2022-10-02T22:46:03.392Z,13.60
2022-10-02T22:48:58.337Z,13.50
2022-10-02T22:51:50.458Z,13.60
2022-10-02T22:54:45.164Z,13.50
2022-10-02T22:57:38.721Z,13.50
2022-10-02T23:00:28.683Z,13.60
2022-10-02T23:03:23.217Z,13.70
2022-10-02T23:06:22.392Z,13.60
2022-10-02T23:09:16.774Z,13.60
2022-10-02T23:12:11.001Z,13.70
2022-10-02T23:15:03.704Z,13.80
2022-10-02T23:17:56.190Z,13.60
2022-10-02T23:20:49.215Z,13.70
2022-10-02T23:23:51.092Z,13.70
2022-10-02T23:26:45.981Z,13.70
2022-10-02T23:29:44.169Z,13.80
2022-10-02T23:32:37.621Z,13.70
2022-10-02T23:35:31.968Z,13.80
2022-10-02T23:38:24.256Z,13.80
2022-10-02T23:41:33.249Z,13.80
2022-10-02T23:44:37.104Z,13.80
2022-10-02T23:47:37.215Z,13.80
2022-10-02T23:50:30.059Z,13.80
2022-10-02T23:53:38.965Z,13.80
2022-10-02T23:56:47.066Z,13.70
2022-10-02T23:59:49.784Z,13.70
